Time;durP1;ratioP1;P1;durP2;ratioP2;P2;SDS_P1;SDS_P2;PMS_P1;PMS_P2;Temp;Humidity;BMP_temperature;BMP_pressure;BME280_temperature;BME280_humidity;BME280_pressure;Samples;Min_cycle;Max_cycle;Signal;HPM_P1;HPM_P2
2024/04/14 00:01:23;;;;;;;5.18;1.95;;;;;;;;;;5358238;26;20140;-68
2024/04/14 00:03:56;;;;;;;4.63;1.88;;;;;;;;;;5348186;26;20329;-69
2024/04/14 00:06:23;;;;;;;5.15;2.28;;;;;;;;;;5345362;26;19997;-69
2024/04/14 00:08:52;;;;;;;3.17;2.28;;;;;;;;;;5350237;26;20097;-69
2024/04/14 00:11:18;;;;;;;2.80;1.70;;;;;;;;;;5348385;26;20679;-69
2024/04/14 00:13:44;;;;;;;11.23;2.22;;;;;;;;;;5324105;26;20027;-69
2024/04/14 00:16:12;;;;;;;2.47;2.28;;;;;;;;;;5342326;26;20001;-69
2024/04/14 00:18:38;;;;;;;4.03;1.95;;;;;;;;;;5359342;26;20012;-69
2024/04/14 00:21:04;;;;;;;5.32;1.92;;;;;;;;;;5348732;26;20079;-69
2024/04/14 00:23:30;;;;;;;3.85;1.92;;;;;;;;;;5344113;26;20604;-69
2024/04/14 00:25:56;;;;;;;4.30;2.10;;;;;;;;;;5351807;26;20078;-68
2024/04/14 00:28:23;;;;;;;9.82;2.00;;;;;;;;;;5353223;26;20488;-68
2024/04/14 00:30:49;;;;;;;3.20;2.17;;;;;;;;;;5342035;26;20008;-69
2024/04/14 00:33:15;;;;;;;7.57;2.03;;;;;;;;;;5354893;26;20175;-69
2024/04/14 00:35:42;;;;;;;4.15;2.25;;;;;;;;;;5349040;26;20074;-69
2024/04/14 00:38:09;;;;;;;6.22;2.05;;;;;;;;;;5350377;26;20001;-69
2024/04/14 00:40:35;;;;;;;1.67;1.58;;;;;;;;;;5345696;26;20009;-70
2024/04/14 00:43:01;;;;;;;7.90;2.45;;;;;;;;;;5345208;26;20070;-69
2024/04/14 00:45:27;;;;;;;3.70;2.00;;;;;;;;;;5343870;26;20085;-69
2024/04/14 00:47:54;;;;;;;8.30;2.15;;;;;;;;;;5353369;26;20361;-68
2024/04/14 00:50:21;;;;;;;1.83;1.65;;;;;;;;;;5342354;26;20013;-69
2024/04/14 00:52:47;;;;;;;2.75;1.30;;;;;;;;;;5358454;26;20008;-69
2024/04/14 00:55:14;;;;;;;2.13;1.98;;;;;;;;;;5339499;26;20000;-69
2024/04/14 00:57:40;;;;;;;6.20;1.92;;;;;;;;;;5352264;26;20342;-69
2024/04/14 01:00:07;;;;;;;7.90;2.45;;;;;;;;;;5349267;26;20908;-68
2024/04/14 01:02:37;;;;;;;6.72;1.58;;;;;;;;;;5335476;26;20005;-69
2024/04/14 01:05:03;;;;;;;3.28;1.90;;;;;;;;;;5348932;26;20003;-69
2024/04/14 01:07:29;;;;;;;5.72;2.03;;;;;;;;;;5346006;26;20015;-68
2024/04/14 01:09:55;;;;;;;5.97;2.28;;;;;;;;;;5345736;26;20113;-69
2024/04/14 01:12:21;;;;;;;4.05;2.20;;;;;;;;;;5348930;26;20008;-69
2024/04/14 01:14:48;;;;;;;2.78;1.73;;;;;;;;;;5344298;26;20611;-69
2024/04/14 01:17:14;;;;;;;9.07;2.03;;;;;;;;;;5347585;26;20417;-68
2024/04/14 01:19:40;;;;;;;8.20;2.45;;;;;;;;;;5351769;26;20471;-69
2024/04/14 01:22:06;;;;;;;12.73;2.20;;;;;;;;;;5356248;26;20016;-68
2024/04/14 01:24:32;;;;;;;3.47;2.00;;;;;;;;;;5350139;26;20016;-69
2024/04/14 01:26:58;;;;;;;11.52;2.05;;;;;;;;;;5352252;26;20022;-69
2024/04/14 01:29:24;;;;;;;3.33;1.67;;;;;;;;;;5348272;26;20019;-68
2024/04/14 01:31:51;;;;;;;2.55;2.15;;;;;;;;;;5342153;26;20007;-69
2024/04/14 01:34:17;;;;;;;2.47;2.13;;;;;;;;;;5349023;26;20001;-69
2024/04/14 01:36:44;;;;;;;10.75;2.13;;;;;;;;;;5355436;26;20071;-69
2024/04/14 01:39:10;;;;;;;2.17;1.98;;;;;;;;;;5359830;26;20074;-69
2024/04/14 01:41:36;;;;;;;1.85;1.75;;;;;;;;;;5356799;26;20379;-68
2024/04/14 01:44:03;;;;;;;5.55;2.05;;;;;;;;;;5350440;26;20008;-69
2024/04/14 01:46:29;;;;;;;5.78;3.05;;;;;;;;;;5351548;26;20360;-68
2024/04/14 01:48:55;;;;;;;4.43;1.67;;;;;;;;;;5347342;26;20079;-69
2024/04/14 01:51:22;;;;;;;1.95;1.60;;;;;;;;;;5345073;26;20004;-69
2024/04/14 01:53:48;;;;;;;3.30;2.08;;;;;;;;;;5352768;26;20392;-69
2024/04/14 01:56:14;;;;;;;9.43;2.25;;;;;;;;;;5351866;26;20007;-69
2024/04/14 01:58:41;;;;;;;2.97;2.42;;;;;;;;;;5350899;26;20336;-69
2024/04/14 02:01:07;;;;;;;1.83;1.73;;;;;;;;;;5347671;26;20015;-69
2024/04/14 02:03:33;;;;;;;3.35;1.95;;;;;;;;;;5350998;26;20015;-69
2024/04/14 02:06:00;;;;;;;3.33;1.55;;;;;;;;;;5355754;26;20000;-69
2024/04/14 02:08:26;;;;;;;4.53;1.70;;;;;;;;;;5356147;26;20044;-69
2024/04/14 02:10:52;;;;;;;2.85;2.60;;;;;;;;;;5352093;26;20008;-68
2024/04/14 02:13:19;;;;;;;3.15;1.48;;;;;;;;;;5348842;26;20928;-68
2024/04/14 02:15:45;;;;;;;7.43;1.80;;;;;;;;;;5354517;26;20004;-69
2024/04/14 02:18:11;;;;;;;2.13;1.92;;;;;;;;;;5353640;26;20479;-69
2024/04/14 02:20:38;;;;;;;5.43;2.13;;;;;;;;;;5354518;26;20001;-68
2024/04/14 02:23:04;;;;;;;3.90;1.60;;;;;;;;;;5358562;26;19996;-68
2024/04/14 02:25:30;;;;;;;2.28;1.85;;;;;;;;;;5358095;26;20009;-69
2024/04/14 02:27:56;;;;;;;6.22;2.00;;;;;;;;;;5353061;26;20013;-68
2024/04/14 02:30:23;;;;;;;1.75;1.65;;;;;;;;;;5339290;26;20657;-62
2024/04/14 02:32:49;;;;;;;10.13;2.35;;;;;;;;;;5349310;26;20373;-62
2024/04/14 02:35:15;;;;;;;1.92;1.70;;;;;;;;;;5360494;26;20000;-69
2024/04/14 02:37:41;;;;;;;6.30;1.80;;;;;;;;;;5356971;26;20003;-69
2024/04/14 02:40:08;;;;;;;6.05;2.08;;;;;;;;;;5389733;26;20067;-70
2024/04/14 02:42:37;;;;;;;1.42;1.42;;;;;;;;;;5354893;26;20000;-68
2024/04/14 02:45:04;;;;;;;4.38;1.92;;;;;;;;;;5350544;26;20013;-69
2024/04/14 02:47:30;;;;;;;16.48;3.28;;;;;;;;;;5355706;26;20012;-69
2024/04/14 02:49:56;;;;;;;3.13;1.67;;;;;;;;;;5356637;26;20444;-68
2024/04/14 02:52:22;;;;;;;1.75;1.58;;;;;;;;;;5356130;26;20083;-68
2024/04/14 02:54:48;;;;;;;2.15;1.38;;;;;;;;;;5355154;26;20015;-69
2024/04/14 02:57:15;;;;;;;2.75;2.17;;;;;;;;;;5352011;26;20011;-69
2024/04/14 02:59:41;;;;;;;19.35;3.90;;;;;;;;;;5332558;26;20000;-69
2024/04/14 03:02:07;;;;;;;7.68;2.45;;;;;;;;;;5354723;26;20019;-69
2024/04/14 03:04:34;;;;;;;6.40;2.33;;;;;;;;;;5358109;26;20008;-69
2024/04/14 03:07:00;;;;;;;5.80;2.38;;;;;;;;;;5353328;26;20609;-68
2024/04/14 03:09:26;;;;;;;9.75;1.95;;;;;;;;;;5355152;26;20008;-69
2024/04/14 03:11:52;;;;;;;4.57;2.13;;;;;;;;;;5352099;26;20004;-69
2024/04/14 03:14:19;;;;;;;2.00;1.77;;;;;;;;;;5351330;26;19997;-68
2024/04/14 03:16:45;;;;;;;9.52;2.25;;;;;;;;;;5340840;26;20019;-68
2024/04/14 03:19:11;;;;;;;5.75;1.58;;;;;;;;;;5349121;26;20011;-69
2024/04/14 03:21:37;;;;;;;6.82;1.63;;;;;;;;;;5356315;26;20530;-68
2024/04/14 03:24:04;;;;;;;2.88;1.73;;;;;;;;;;5353924;26;20363;-69
2024/04/14 03:26:30;;;;;;;2.10;1.70;;;;;;;;;;5349126;26;20070;-69
2024/04/14 03:28:57;;;;;;;3.17;1.95;;;;;;;;;;5353596;26;20009;-68
2024/04/14 03:31:23;;;;;;;2.75;1.70;;;;;;;;;;5354870;26;20090;-69
2024/04/14 03:33:49;;;;;;;2.45;1.83;;;;;;;;;;5354620;26;20000;-69
2024/04/14 03:36:16;;;;;;;6.03;2.25;;;;;;;;;;5349915;26;20021;-69
2024/04/14 03:38:42;;;;;;;2.00;1.83;;;;;;;;;;5356431;26;20000;-68
2024/04/14 03:41:09;;;;;;;3.65;1.80;;;;;;;;;;5350706;26;20009;-69
2024/04/14 03:43:35;;;;;;;6.57;2.28;;;;;;;;;;5333559;26;20013;-69
2024/04/14 03:46:01;;;;;;;11.00;2.28;;;;;;;;;;5360979;26;20468;-69
2024/04/14 03:48:27;;;;;;;2.85;1.85;;;;;;;;;;5359570;26;21027;-69
2024/04/14 03:50:53;;;;;;;1.50;1.40;;;;;;;;;;5354036;26;20391;-69
2024/04/14 03:53:20;;;;;;;10.43;1.83;;;;;;;;;;5350615;26;20280;-68
2024/04/14 03:55:46;;;;;;;1.90;1.80;;;;;;;;;;5350520;26;20015;-69
2024/04/14 03:58:12;;;;;;;3.83;2.00;;;;;;;;;;5353901;26;20000;-69
2024/04/14 04:00:38;;;;;;;2.38;2.17;;;;;;;;;;5353455;26;20067;-69
2024/04/14 04:03:05;;;;;;;5.68;1.90;;;;;;;;;;5358606;26;19992;-69
2024/04/14 04:05:31;;;;;;;4.32;1.88;;;;;;;;;;5361352;26;20012;-69
2024/04/14 04:07:57;;;;;;;3.05;1.88;;;;;;;;;;5384719;26;20402;-69
2024/04/14 04:10:23;;;;;;;2.88;1.80;;;;;;;;;;5357704;26;20008;-69
2024/04/14 04:12:49;;;;;;;4.47;1.42;;;;;;;;;;5358467;26;20236;-69
2024/04/14 04:15:16;;;;;;;5.60;2.17;;;;;;;;;;5346863;26;20023;-69
2024/04/14 04:17:42;;;;;;;11.75;1.95;;;;;;;;;;5351623;26;20008;-69
2024/04/14 04:20:08;;;;;;;5.50;1.70;;;;;;;;;;5360916;26;22034;-69
2024/04/14 04:22:34;;;;;;;6.30;1.60;;;;;;;;;;5368699;26;20497;-69
2024/04/14 04:25:00;;;;;;;1.88;1.50;;;;;;;;;;5361426;26;20009;-68
2024/04/14 04:27:27;;;;;;;2.92;1.58;;;;;;;;;;5352487;26;20438;-69
2024/04/14 04:29:53;;;;;;;5.15;2.08;;;;;;;;;;5362130;26;20025;-69
2024/04/14 04:32:21;;;;;;;7.32;2.08;;;;;;;;;;5357096;26;19996;-69
2024/04/14 04:34:47;;;;;;;2.40;1.50;;;;;;;;;;5353223;26;20001;-69
2024/04/14 04:37:14;;;;;;;9.82;3.28;;;;;;;;;;5353051;26;20349;-68
2024/04/14 04:39:40;;;;;;;3.10;1.73;;;;;;;;;;5348710;26;20009;-69
2024/04/14 04:42:06;;;;;;;3.97;2.38;;;;;;;;;;5344721;26;20020;-68
2024/04/14 04:44:33;;;;;;;2.33;1.75;;;;;;;;;;5351209;26;20506;-68
2024/04/14 04:46:59;;;;;;;3.75;2.10;;;;;;;;;;5357170;26;19996;-69
2024/04/14 04:49:25;;;;;;;2.55;1.83;;;;;;;;;;5357984;26;20000;-69
2024/04/14 04:51:51;;;;;;;9.07;2.35;;;;;;;;;;5357861;26;20018;-68
2024/04/14 04:54:17;;;;;;;7.78;1.83;;;;;;;;;;5352890;26;20454;-69
2024/04/14 04:56:43;;;;;;;1.45;1.23;;;;;;;;;;5353581;26;20080;-69
2024/04/14 04:59:09;;;;;;;1.65;1.55;;;;;;;;;;5353142;26;20001;-69
2024/04/14 05:01:36;;;;;;;1.30;1.30;;;;;;;;;;5358700;26;20369;-69
2024/04/14 05:04:02;;;;;;;2.65;2.22;;;;;;;;;;5364568;26;20007;-69
2024/04/14 05:06:28;;;;;;;4.63;1.65;;;;;;;;;;5351532;26;20001;-69
2024/04/14 05:08:54;;;;;;;6.85;2.05;;;;;;;;;;5345881;26;20460;-69
2024/04/14 05:11:20;;;;;;;5.63;2.08;;;;;;;;;;5346822;26;20095;-69
2024/04/14 05:13:46;;;;;;;1.85;1.75;;;;;;;;;;5352527;26;20001;-69
2024/04/14 05:16:12;;;;;;;2.25;2.05;;;;;;;;;;5354755;26;20005;-69
2024/04/14 05:18:39;;;;;;;3.80;1.73;;;;;;;;;;5348962;26;20008;-69
2024/04/14 05:21:05;;;;;;;3.15;2.17;;;;;;;;;;5355498;26;20015;-69
2024/04/14 05:23:31;;;;;;;3.35;1.98;;;;;;;;;;5350907;26;20039;-69
2024/04/14 05:26:00;;;;;;;4.63;2.08;;;;;;;;;;5358815;26;20019;-68
2024/04/14 05:28:26;;;;;;;3.00;2.28;;;;;;;;;;5350531;26;20005;-69
2024/04/14 05:30:52;;;;;;;14.40;2.33;;;;;;;;;;5350584;26;20448;-69
2024/04/14 05:33:18;;;;;;;3.65;1.90;;;;;;;;;;5350532;26;20000;-68
2024/04/14 05:35:58;;;;;;;3.88;1.42;;;;;;;;;;5344000;26;20000;-69
2024/04/14 05:38:24;;;;;;;10.80;2.35;;;;;;;;;;5342006;26;20353;-70
2024/04/14 05:40:51;;;;;;;3.53;1.50;;;;;;;;;;5355816;26;20016;-73
2024/04/14 05:43:17;;;;;;;6.93;2.35;;;;;;;;;;5351285;26;19997;-71
2024/04/14 05:45:43;;;;;;;1.70;1.60;;;;;;;;;;5357939;26;20001;-70
2024/04/14 05:48:09;;;;;;;8.68;1.50;;;;;;;;;;5355807;26;20016;-68
2024/04/14 05:50:35;;;;;;;3.45;2.20;;;;;;;;;;5361489;26;20004;-72
2024/04/14 05:53:01;;;;;;;8.90;2.00;;;;;;;;;;5358576;26;20511;-72
2024/04/14 05:55:27;;;;;;;3.40;1.83;;;;;;;;;;5358644;26;20005;-67
2024/04/14 05:57:54;;;;;;;3.38;2.15;;;;;;;;;;5355905;26;20000;-70
2024/04/14 06:00:20;;;;;;;2.85;2.65;;;;;;;;;;5359581;26;20005;-68
2024/04/14 06:02:46;;;;;;;8.18;2.00;;;;;;;;;;5364508;26;20009;-72
2024/04/14 06:05:12;;;;;;;3.88;2.30;;;;;;;;;;5361353;26;20020;-73
2024/04/14 06:07:38;;;;;;;2.10;1.58;;;;;;;;;;5358776;26;20532;-74
2024/04/14 06:10:04;;;;;;;2.20;2.00;;;;;;;;;;5355176;26;20332;-74
2024/04/14 06:12:30;;;;;;;1.48;1.33;;;;;;;;;;5359633;26;20340;-73
2024/04/14 06:14:57;;;;;;;3.03;1.65;;;;;;;;;;5360984;26;20011;-73
2024/04/14 06:17:23;;;;;;;2.03;1.80;;;;;;;;;;5358015;26;20619;-74
2024/04/14 06:19:50;;;;;;;4.07;2.10;;;;;;;;;;5353128;26;20008;-69
2024/04/14 06:22:17;;;;;;;1.83;1.67;;;;;;;;;;5369384;26;20050;-70
2024/04/14 06:24:43;;;;;;;3.20;2.00;;;;;;;;;;5355940;26;20008;-68
2024/04/14 06:27:09;;;;;;;2.72;2.28;;;;;;;;;;5362100;26;20004;-76
2024/04/14 06:29:36;;;;;;;4.32;1.60;;;;;;;;;;5359693;26;20000;-72
2024/04/14 06:32:02;;;;;;;1.23;1.23;;;;;;;;;;5354339;26;20011;-71
2024/04/14 06:34:28;;;;;;;1.70;1.60;;;;;;;;;;5366095;26;20012;-72
2024/04/14 06:36:54;;;;;;;2.88;1.67;;;;;;;;;;5375101;26;19993;-72
2024/04/14 06:39:20;;;;;;;3.30;1.73;;;;;;;;;;5362550;26;20043;-72
2024/04/14 06:41:47;;;;;;;3.95;1.92;;;;;;;;;;5355624;26;20019;-72
2024/04/14 06:44:13;;;;;;;1.98;1.70;;;;;;;;;;5359515;26;20492;-73
2024/04/14 06:46:39;;;;;;;7.00;1.80;;;;;;;;;;5364992;26;20011;-73
2024/04/14 06:49:05;;;;;;;4.47;3.28;;;;;;;;;;5361670;26;20000;-70
2024/04/14 06:51:31;;;;;;;10.18;2.60;;;;;;;;;;5363120;26;20008;-78
2024/04/14 06:53:57;;;;;;;4.40;1.70;;;;;;;;;;5367995;26;20008;-69
2024/04/14 06:56:24;;;;;;;1.60;1.50;;;;;;;;;;5352544;26;20105;-72
2024/04/14 06:58:50;;;;;;;3.47;1.85;;;;;;;;;;5367425;26;20004;-72
2024/04/14 07:01:16;;;;;;;1.80;1.70;;;;;;;;;;5362659;26;20346;-70
2024/04/14 07:03:43;;;;;;;1.65;1.55;;;;;;;;;;5387860;26;20012;-62
2024/04/14 07:06:09;;;;;;;9.27;2.10;;;;;;;;;;5360892;26;20008;-70
2024/04/14 07:08:35;;;;;;;4.78;2.25;;;;;;;;;;5363108;26;20487;-69
2024/04/14 07:11:02;;;;;;;7.80;2.15;;;;;;;;;;5372055;26;20005;-68
2024/04/14 07:13:28;;;;;;;2.45;1.42;;;;;;;;;;5367428;26;20000;-77
2024/04/14 07:15:54;;;;;;;5.43;2.05;;;;;;;;;;5353554;26;20015;-74
2024/04/14 07:18:20;;;;;;;1.52;1.42;;;;;;;;;;5362267;26;20054;-71
2024/04/14 07:20:47;;;;;;;1.48;1.40;;;;;;;;;;5372921;26;20522;-72
2024/04/14 07:23:13;;;;;;;2.45;1.50;;;;;;;;;;5366271;26;20008;-73
2024/04/14 07:25:39;;;;;;;2.70;1.48;;;;;;;;;;5367071;26;21102;-72
2024/04/14 07:28:05;;;;;;;1.55;1.45;;;;;;;;;;5363507;26;20000;-73
2024/04/14 07:30:31;;;;;;;4.32;1.55;;;;;;;;;;5363101;26;20005;-75
2024/04/14 07:32:57;;;;;;;5.63;1.95;;;;;;;;;;5353704;26;20007;-68
2024/04/14 07:35:24;;;;;;;5.30;2.00;;;;;;;;;;5385078;26;20000;-70
2024/04/14 07:37:50;;;;;;;3.58;1.73;;;;;;;;;;5363334;26;20050;-73
2024/04/14 07:40:16;;;;;;;6.28;2.15;;;;;;;;;;5365861;26;20008;-71
2024/04/14 07:42:43;;;;;;;1.75;1.40;;;;;;;;;;5368294;26;20000;-72
2024/04/14 07:45:10;;;;;;;5.47;1.67;;;;;;;;;;5353208;26;20005;-75
2024/04/14 07:47:37;;;;;;;4.97;1.55;;;;;;;;;;5350259;26;20372;-73
2024/04/14 07:50:03;;;;;;;3.38;1.95;;;;;;;;;;5360626;26;20360;-74
2024/04/14 07:52:31;;;;;;;7.65;1.77;;;;;;;;;;5368030;26;20687;-68
2024/04/14 07:54:57;;;;;;;3.10;1.52;;;;;;;;;;5356800;26;20005;-70
2024/04/14 07:57:23;;;;;;;2.70;1.40;;;;;;;;;;5359768;26;20390;-68
2024/04/14 07:59:50;;;;;;;1.60;1.33;;;;;;;;;;5354694;26;20001;-68
2024/04/14 08:02:17;;;;;;;3.63;1.40;;;;;;;;;;5378775;26;20012;-68
2024/04/14 08:04:43;;;;;;;4.10;1.33;;;;;;;;;;5368465;26;20019;-68
2024/04/14 08:07:09;;;;;;;1.55;1.42;;;;;;;;;;5369758;26;19996;-69
2024/04/14 08:09:35;;;;;;;2.58;1.50;;;;;;;;;;5370544;26;20078;-69
2024/04/14 08:12:01;;;;;;;4.43;1.70;;;;;;;;;;5361538;26;20015;-69
2024/04/14 08:14:28;;;;;;;2.50;1.73;;;;;;;;;;5368474;26;20008;-68
2024/04/14 08:16:54;;;;;;;2.75;1.88;;;;;;;;;;5376935;26;20023;-70
2024/04/14 08:19:21;;;;;;;3.67;1.77;;;;;;;;;;5379181;26;20012;-69
2024/04/14 08:21:47;;;;;;;1.58;1.48;;;;;;;;;;5369302;26;19997;-69
2024/04/14 08:24:14;;;;;;;1.50;1.40;;;;;;;;;;5363824;26;20018;-69
2024/04/14 08:26:40;;;;;;;1.08;1.08;;;;;;;;;;5350901;26;20326;-69
2024/04/14 08:29:06;;;;;;;2.92;1.52;;;;;;;;;;5369909;26;20410;-69
2024/04/14 08:31:32;;;;;;;2.05;1.80;;;;;;;;;;5369659;26;20578;-69
2024/04/14 08:33:58;;;;;;;1.77;1.63;;;;;;;;;;5363369;26;20011;-69
2024/04/14 08:36:24;;;;;;;2.80;1.52;;;;;;;;;;5363754;26;19997;-69
2024/04/14 08:38:51;;;;;;;2.20;1.70;;;;;;;;;;5371670;26;20003;-69
2024/04/14 08:41:17;;;;;;;1.65;1.40;;;;;;;;;;5364035;26;20029;-70
2024/04/14 08:43:44;;;;;;;2.47;1.50;;;;;;;;;;5359347;26;20464;-69
2024/04/14 08:46:17;;;;;;;2.53;1.45;;;;;;;;;;5356105;26;20492;-69
2024/04/14 08:48:45;;;;;;;4.22;1.58;;;;;;;;;;5355577;26;20345;-69
2024/04/14 08:51:12;;;;;;;2.55;1.48;;;;;;;;;;5367405;26;20224;-69
2024/04/14 08:53:39;;;;;;;2.15;1.92;;;;;;;;;;5354060;26;20001;-63
2024/04/14 08:56:06;;;;;;;5.05;1.77;;;;;;;;;;5349235;26;20398;-63
2024/04/14 08:58:33;;;;;;;2.53;1.52;;;;;;;;;;5357915;26;19997;-63
2024/04/14 09:01:03;;;;;;;4.97;1.70;;;;;;;;;;5365947;26;20000;-64
2024/04/14 09:03:33;;;;;;;2.35;1.90;;;;;;;;;;5356624;26;20008;-69
2024/04/14 09:06:05;;;;;;;2.28;2.00;;;;;;;;;;5363264;26;19994;-69
2024/04/14 09:08:32;;;;;;;2.40;1.65;;;;;;;;;;5358166;26;20081;-72
2024/04/14 09:10:58;;;;;;;1.92;1.50;;;;;;;;;;5360670;26;20000;-69
2024/04/14 09:13:29;;;;;;;1.45;1.35;;;;;;;;;;5368272;26;20009;-68
2024/04/14 09:15:55;;;;;;;3.78;1.58;;;;;;;;;;5353645;26;20083;-63
2024/04/14 09:18:22;;;;;;;3.53;1.65;;;;;;;;;;5341439;26;20008;-63
2024/04/14 09:20:49;;;;;;;1.90;1.60;;;;;;;;;;5363312;26;20004;-64
2024/04/14 09:23:15;;;;;;;2.90;1.70;;;;;;;;;;5357966;26;20004;-65
2024/04/14 09:25:43;;;;;;;5.60;1.60;;;;;;;;;;5358382;26;19992;-64
2024/04/14 09:28:14;;;;;;;4.07;1.70;;;;;;;;;;5358642;26;19997;-68
2024/04/14 09:30:41;;;;;;;3.35;1.50;;;;;;;;;;5359773;26;20005;-63
2024/04/14 09:33:07;;;;;;;1.25;1.25;;;;;;;;;;5366029;26;20000;-63
2024/04/14 09:35:34;;;;;;;4.97;1.90;;;;;;;;;;5355972;26;20041;-63
2024/04/14 09:38:00;;;;;;;2.70;1.73;;;;;;;;;;5346614;26;20001;-64
2024/04/14 09:40:28;;;;;;;1.90;1.30;;;;;;;;;;5376030;26;20015;-64
2024/04/14 09:42:57;;;;;;;1.98;1.30;;;;;;;;;;5376373;26;20077;-63
2024/04/14 09:45:25;;;;;;;7.03;2.58;;;;;;;;;;5365845;26;20494;-69
2024/04/14 09:47:52;;;;;;;5.38;2.75;;;;;;;;;;5381089;26;20003;-68
2024/04/14 09:50:21;;;;;;;5.45;1.70;;;;;;;;;;5381775;26;20007;-69
2024/04/14 09:52:51;;;;;;;3.63;1.30;;;;;;;;;;5380576;26;20016;-64
2024/04/14 09:55:17;;;;;;;12.40;1.90;;;;;;;;;;5377563;26;20084;-70
2024/04/14 09:57:43;;;;;;;5.75;2.15;;;;;;;;;;5381496;26;20004;-67
2024/04/14 10:00:10;;;;;;;1.83;1.67;;;;;;;;;;5374868;26;20011;-68
2024/04/14 10:02:42;;;;;;;4.38;1.70;;;;;;;;;;5381670;26;20012;-69
2024/04/14 10:05:09;;;;;;;4.22;1.88;;;;;;;;;;5389119;26;19999;-69
2024/04/14 10:07:38;;;;;;;4.97;1.55;;;;;;;;;;5378211;26;20034;-68
2024/04/14 10:10:08;;;;;;;4.10;1.95;;;;;;;;;;5384810;26;20008;-69
2024/04/14 10:12:34;;;;;;;3.45;1.60;;;;;;;;;;5386873;26;20588;-63
2024/04/14 10:15:05;;;;;;;5.45;1.80;;;;;;;;;;5378116;26;20015;-63
2024/04/14 10:17:37;;;;;;;1.52;1.40;;;;;;;;;;5379551;26;20018;-64
2024/04/14 10:20:08;;;;;;;2.63;1.80;;;;;;;;;;5378960;26;19992;-64
2024/04/14 10:22:38;;;;;;;1.42;1.33;;;;;;;;;;5370209;26;19999;-73
2024/04/14 10:25:05;;;;;;;5.40;1.60;;;;;;;;;;5377356;26;20000;-70
2024/04/14 10:27:35;;;;;;;3.70;1.40;;;;;;;;;;5388495;26;20386;-75
2024/04/14 10:30:02;;;;;;;4.25;1.50;;;;;;;;;;5376400;26;20000;-66
2024/04/14 10:32:28;;;;;;;2.03;1.40;;;;;;;;;;5371723;26;20011;-65
2024/04/14 10:34:56;;;;;;;3.10;1.48;;;;;;;;;;5363430;26;20008;-65
2024/04/14 10:37:27;;;;;;;1.60;1.50;;;;;;;;;;5393684;26;20071;-66
2024/04/14 10:39:53;;;;;;;1.98;1.50;;;;;;;;;;5373366;26;20001;-70
2024/04/14 10:42:20;;;;;;;7.30;1.45;;;;;;;;;;5389612;26;20049;-68
2024/04/14 10:44:50;;;;;;;5.07;1.80;;;;;;;;;;5377720;26;20007;-69
2024/04/14 10:47:20;;;;;;;5.50;1.90;;;;;;;;;;5380602;26;19996;-68
2024/04/14 10:49:47;;;;;;;3.72;2.72;;;;;;;;;;5383054;26;20410;-69
2024/04/14 10:52:15;;;;;;;4.90;2.45;;;;;;;;;;5388931;26;20465;-69
2024/04/14 10:54:41;;;;;;;1.38;1.27;;;;;;;;;;5381061;26;20669;-64
2024/04/14 10:57:09;;;;;;;2.10;1.48;;;;;;;;;;5381464;26;19999;-63
2024/04/14 10:59:35;;;;;;;5.93;1.65;;;;;;;;;;5360363;26;20564;-63
2024/04/14 11:02:04;;;;;;;8.75;2.00;;;;;;;;;;5373084;26;20055;-63
2024/04/14 11:04:34;;;;;;;4.35;1.65;;;;;;;;;;5375654;26;20002;-65
2024/04/14 11:07:02;;;;;;;5.93;2.35;;;;;;;;;;5373627;26;20315;-64
2024/04/14 11:09:29;;;;;;;2.97;1.50;;;;;;;;;;5366106;26;20011;-64
2024/04/14 11:11:56;;;;;;;2.50;1.77;;;;;;;;;;5369612;26;20001;-70
2024/04/14 11:14:23;;;;;;;2.33;1.50;;;;;;;;;;5394313;26;20514;-70
2024/04/14 11:16:49;;;;;;;1.15;1.15;;;;;;;;;;5378712;26;20003;-71
2024/04/14 11:19:16;;;;;;;3.08;1.60;;;;;;;;;;5375098;26;20035;-64
2024/04/14 11:21:43;;;;;;;3.40;1.60;;;;;;;;;;5374187;26;20007;-64
2024/04/14 11:24:10;;;;;;;2.92;2.10;;;;;;;;;;5369728;26;20000;-63
2024/04/14 11:26:36;;;;;;;4.13;1.52;;;;;;;;;;5377111;26;20040;-63
2024/04/14 11:29:02;;;;;;;2.25;1.70;;;;;;;;;;5378684;26;20008;-62
2024/04/14 11:31:30;;;;;;;4.90;1.90;;;;;;;;;;5365850;26;19995;-63
2024/04/14 11:33:56;;;;;;;2.17;1.98;;;;;;;;;;5361724;26;20669;-63
2024/04/14 11:36:23;;;;;;;1.70;1.50;;;;;;;;;;5378843;26;20086;-69
2024/04/14 11:38:53;;;;;;;2.70;1.92;;;;;;;;;;5398893;26;20112;-63
2024/04/14 11:41:19;;;;;;;4.22;2.03;;;;;;;;;;5373566;26;20094;-69
2024/04/14 11:43:45;;;;;;;4.72;2.13;;;;;;;;;;5376979;26;20036;-69
2024/04/14 11:46:11;;;;;;;3.15;1.50;;;;;;;;;;5362482;26;20001;-69
2024/04/14 11:48:37;;;;;;;1.75;1.52;;;;;;;;;;5356718;26;20437;-66
2024/04/14 11:51:04;;;;;;;3.58;1.58;;;;;;;;;;5349779;26;20013;-63
2024/04/14 11:53:30;;;;;;;1.88;1.40;;;;;;;;;;5352970;26;20003;-63
2024/04/14 11:55:56;;;;;;;2.17;2.03;;;;;;;;;;5355563;26;20004;-63
2024/04/14 11:58:25;;;;;;;2.20;1.65;;;;;;;;;;5355889;26;20018;-63
2024/04/14 12:00:52;;;;;;;1.92;1.70;;;;;;;;;;5351504;26;20008;-63
2024/04/14 12:03:18;;;;;;;3.75;1.50;;;;;;;;;;5351399;26;20323;-63
2024/04/14 12:05:44;;;;;;;1.95;1.50;;;;;;;;;;5359181;26;20000;-63
2024/04/14 12:08:10;;;;;;;2.25;1.50;;;;;;;;;;5355253;26;19997;-63
2024/04/14 12:10:36;;;;;;;4.20;1.60;;;;;;;;;;5353564;26;20008;-63
2024/04/14 12:13:03;;;;;;;4.85;2.00;;;;;;;;;;5347487;26;20452;-63
2024/04/14 12:15:29;;;;;;;3.15;1.63;;;;;;;;;;5360989;26;19995;-63
2024/04/14 12:17:55;;;;;;;6.80;1.80;;;;;;;;;;5337689;26;20008;-63
2024/04/14 12:20:21;;;;;;;5.00;2.83;;;;;;;;;;5356980;26;20012;-63
2024/04/14 12:22:47;;;;;;;2.42;1.55;;;;;;;;;;5350625;26;20122;-67
2024/04/14 12:25:13;;;;;;;1.60;1.50;;;;;;;;;;5383915;26;20119;-68
2024/04/14 12:27:40;;;;;;;7.38;1.70;;;;;;;;;;5359208;26;20469;-70
2024/04/14 12:30:06;;;;;;;3.15;1.60;;;;;;;;;;5360953;26;20077;-70
2024/04/14 12:32:32;;;;;;;1.85;1.30;;;;;;;;;;5351205;26;20015;-67
2024/04/14 12:35:02;;;;;;;1.60;1.52;;;;;;;;;;5366154;26;20008;-63
2024/04/14 12:37:28;;;;;;;4.65;1.63;;;;;;;;;;5355105;26;20760;-63
2024/04/14 12:39:54;;;;;;;1.60;1.50;;;;;;;;;;5364150;26;20563;-68
2024/04/14 12:42:20;;;;;;;2.53;1.65;;;;;;;;;;5360289;26;20017;-68
2024/04/14 12:44:47;;;;;;;4.22;2.55;;;;;;;;;;5356336;26;20000;-69
2024/04/14 12:47:13;;;;;;;2.70;1.70;;;;;;;;;;5380369;26;20088;-68
2024/04/14 12:49:39;;;;;;;2.05;1.40;;;;;;;;;;5384199;26;20036;-69
2024/04/14 12:52:06;;;;;;;3.22;1.90;;;;;;;;;;5358738;26;20016;-68
2024/04/14 12:54:32;;;;;;;5.40;1.98;;;;;;;;;;5358562;26;19996;-69
2024/04/14 12:56:58;;;;;;;1.50;1.40;;;;;;;;;;5360162;26;20000;-68
2024/04/14 12:59:24;;;;;;;1.15;1.15;;;;;;;;;;5391114;26;20004;-68
2024/04/14 13:01:50;;;;;;;3.42;1.42;;;;;;;;;;5334224;26;20015;-69
2024/04/14 13:04:17;;;;;;;2.25;1.60;;;;;;;;;;5338619;26;20000;-68
2024/04/14 13:06:43;;;;;;;5.53;1.90;;;;;;;;;;5346669;26;20316;-69
2024/04/14 13:09:09;;;;;;;3.97;1.83;;;;;;;;;;5354524;26;20012;-69
2024/04/14 13:11:35;;;;;;;1.83;1.73;;;;;;;;;;5352117;26;20012;-70
2024/04/14 13:14:02;;;;;;;2.42;1.80;;;;;;;;;;5350647;26;20008;-70
2024/04/14 13:16:28;;;;;;;3.72;1.58;;;;;;;;;;5387315;26;20008;-69
2024/04/14 13:18:54;;;;;;;4.22;2.05;;;;;;;;;;5349459;26;20008;-70
2024/04/14 13:21:20;;;;;;;2.47;1.60;;;;;;;;;;5356218;26;20003;-70
2024/04/14 13:23:47;;;;;;;2.50;1.75;;;;;;;;;;5355683;26;20445;-71
2024/04/14 13:26:14;;;;;;;2.85;2.20;;;;;;;;;;5351133;26;20001;-68
2024/04/14 13:28:40;;;;;;;5.55;2.20;;;;;;;;;;5357945;26;20512;-68
2024/04/14 13:31:07;;;;;;;1.80;1.70;;;;;;;;;;5369494;26;20011;-62
2024/04/14 13:33:33;;;;;;;2.00;1.80;;;;;;;;;;5362707;26;19997;-63
2024/04/14 13:36:06;;;;;;;7.15;2.25;;;;;;;;;;5357279;26;20985;-63
2024/04/14 13:38:32;;;;;;;2.92;1.73;;;;;;;;;;5351606;26;20000;-63
2024/04/14 13:41:02;;;;;;;2.33;1.75;;;;;;;;;;5349717;26;20001;-63
2024/04/14 13:43:28;;;;;;;1.80;1.70;;;;;;;;;;5350089;26;20033;-69
2024/04/14 13:45:54;;;;;;;2.15;1.48;;;;;;;;;;5361651;26;20011;-69
2024/04/14 13:48:20;;;;;;;2.58;1.65;;;;;;;;;;5353102;26;19997;-70
2024/04/14 13:50:46;;;;;;;7.65;2.40;;;;;;;;;;5356581;26;20015;-70
2024/04/14 13:53:12;;;;;;;4.97;2.20;;;;;;;;;;5350961;26;19996;-70
2024/04/14 13:55:38;;;;;;;3.33;2.00;;;;;;;;;;5355834;26;20008;-68
2024/04/14 13:58:05;;;;;;;2.60;1.58;;;;;;;;;;5350654;26;20464;-69
2024/04/14 14:00:33;;;;;;;1.77;1.67;;;;;;;;;;5354442;26;20273;-70
2024/04/14 14:02:59;;;;;;;2.60;1.70;;;;;;;;;;5354089;26;19996;-70
2024/04/14 14:05:26;;;;;;;1.85;1.70;;;;;;;;;;5355103;26;20014;-63
2024/04/14 14:07:53;;;;;;;2.83;1.50;;;;;;;;;;5353771;26;20015;-63
2024/04/14 14:10:20;;;;;;;3.00;1.38;;;;;;;;;;5378525;26;20004;-63
2024/04/14 14:12:46;;;;;;;5.13;1.80;;;;;;;;;;5345388;26;20640;-63
2024/04/14 14:15:12;;;;;;;5.03;1.90;;;;;;;;;;5352908;26;20011;-63
2024/04/14 14:17:38;;;;;;;1.58;1.48;;;;;;;;;;5352709;26;20000;-63
2024/04/14 14:20:05;;;;;;;2.28;1.48;;;;;;;;;;5345187;26;20016;-63
2024/04/14 14:22:31;;;;;;;3.53;1.90;;;;;;;;;;5359953;26;20004;-63
2024/04/14 14:24:57;;;;;;;3.92;1.60;;;;;;;;;;5350386;26;20007;-70
2024/04/14 14:27:23;;;;;;;2.22;1.63;;;;;;;;;;5358083;26;20444;-64
2024/04/14 14:29:50;;;;;;;4.85;2.20;;;;;;;;;;5355389;26;20439;-63
2024/04/14 14:32:16;;;;;;;3.67;2.30;;;;;;;;;;5376874;26;19993;-64
2024/04/14 14:37:27;;;;;;;6.87;2.57;;;;;;;;;;5343019;26;20104;-67
2024/04/14 14:39:53;;;;;;;3.72;1.70;;;;;;;;;;5344063;26;20004;-65
2024/04/14 14:42:19;;;;;;;1.85;1.67;;;;;;;;;;5351753;26;20012;-69